createdAt,value
2018-08-04T00:01:05.866Z,13.83
2018-08-04T00:03:34.278Z,12.30
2018-08-04T00:06:02.587Z,10.77
2018-08-04T00:08:31.001Z,11.40
2018-08-04T00:10:59.330Z,11.97
2018-08-04T00:13:27.744Z,11.50
2018-08-04T00:15:56.050Z,12.30
2018-08-04T00:18:24.389Z,11.67
2018-08-04T00:20:52.725Z,12.37
2018-08-04T00:23:24.227Z,12.27
2018-08-04T00:25:52.965Z,12.20
2018-08-04T00:28:21.307Z,11.10
2018-08-04T00:30:49.613Z,11.27
2018-08-04T00:33:17.792Z,13.27
2018-08-04T00:35:46.112Z,12.70
2018-08-04T00:38:14.495Z,12.00
2018-08-04T00:40:42.883Z,12.23
2018-08-04T00:43:11.335Z,12.87
2018-08-04T00:45:39.670Z,12.40
2018-08-04T00:48:07.909Z,12.57
2018-08-04T00:50:36.222Z,12.47
2018-08-04T00:53:04.749Z,12.30
2018-08-04T00:55:33.137Z,11.87
2018-08-04T00:58:01.349Z,11.17
2018-08-04T01:00:29.593Z,12.20
2018-08-04T01:02:57.956Z,11.50
2018-08-04T01:05:26.370Z,11.30
2018-08-04T01:07:54.570Z,12.00
2018-08-04T01:10:22.913Z,12.63
2018-08-04T01:12:51.268Z,11.10
2018-08-04T01:15:19.600Z,11.10
2018-08-04T01:17:47.909Z,11.33
2018-08-04T01:20:16.213Z,11.47
2018-08-04T01:22:44.577Z,11.10
2018-08-04T01:25:12.919Z,11.10
2018-08-04T01:27:41.252Z,11.50
2018-08-04T01:30:09.670Z,11.60
2018-08-04T01:32:38.005Z,11.23
2018-08-04T01:35:06.378Z,10.83
2018-08-04T01:37:34.720Z,11.30
2018-08-04T01:40:03.747Z,11.13
2018-08-04T01:42:32.063Z,11.40
2018-08-04T01:45:00.355Z,12.13
2018-08-04T01:47:28.707Z,11.50
2018-08-04T01:49:57.011Z,10.90
2018-08-04T01:52:25.362Z,11.33
2018-08-04T01:54:53.657Z,10.67
2018-08-04T01:57:22.018Z,12.87
2018-08-04T01:59:50.355Z,10.63
2018-08-04T02:02:18.657Z,11.20
2018-08-04T02:04:46.864Z,11.20
2018-08-04T02:07:15.214Z,11.10
2018-08-04T02:09:43.525Z,12.07
2018-08-04T02:12:11.832Z,11.50
2018-08-04T02:14:40.123Z,11.23
2018-08-04T02:17:08.420Z,10.87
2018-08-04T02:19:36.737Z,12.20
2018-08-04T02:22:05.213Z,12.03
2018-08-04T02:24:33.580Z,12.23
2018-08-04T02:27:01.924Z,11.87
2018-08-04T02:29:30.249Z,11.40
2018-08-04T02:31:58.571Z,11.83
2018-08-04T02:34:26.867Z,11.43
2018-08-04T02:36:55.233Z,12.03
2018-08-04T02:39:23.566Z,10.73
2018-08-04T02:41:51.834Z,11.33
2018-08-04T02:44:20.152Z,11.43
2018-08-04T02:46:48.436Z,11.27
2018-08-04T02:49:16.729Z,10.90
2018-08-04T02:51:45.022Z,11.73
2018-08-04T02:54:13.306Z,12.17
2018-08-04T02:56:41.616Z,11.70
2018-08-04T02:59:09.882Z,10.90
2018-08-04T03:01:38.173Z,12.17
2018-08-04T03:04:06.388Z,11.73
2018-08-04T03:06:34.696Z,11.73
2018-08-04T03:09:05.001Z,11.63
2018-08-04T03:11:33.337Z,10.80
2018-08-04T03:14:01.637Z,11.67
2018-08-04T03:16:29.990Z,12.07
2018-08-04T03:19:00.114Z,11.33
2018-08-04T03:21:28.978Z,12.20
2018-08-04T03:23:57.343Z,10.87
2018-08-04T03:26:25.777Z,11.27
2018-08-04T03:28:54.085Z,10.83
2018-08-04T03:31:22.493Z,12.90
2018-08-04T03:33:50.786Z,11.93
2018-08-04T03:36:19.099Z,11.60
2018-08-04T03:38:47.388Z,11.60
2018-08-04T03:41:15.737Z,12.63
2018-08-04T03:43:44.023Z,11.77
2018-08-04T03:46:12.366Z,10.63
2018-08-04T03:48:40.688Z,11.40
2018-08-04T03:51:09.021Z,11.00
2018-08-04T03:53:37.377Z,11.30
2018-08-04T03:56:05.778Z,11.83
2018-08-04T03:58:34.037Z,10.83
2018-08-04T04:01:02.417Z,11.30
2018-08-04T04:03:30.757Z,11.27
2018-08-04T04:05:59.061Z,11.50
2018-08-04T04:08:27.280Z,11.10
2018-08-04T04:10:55.536Z,11.07
2018-08-04T04:13:23.845Z,10.97
2018-08-04T04:15:52.152Z,11.17
2018-08-04T04:18:20.506Z,10.83
2018-08-04T04:20:48.834Z,11.03
2018-08-04T04:23:17.162Z,11.07
2018-08-04T04:25:45.445Z,12.10
2018-08-04T04:28:13.777Z,11.50
2018-08-04T04:30:42.246Z,12.27
2018-08-04T04:33:10.577Z,11.70
2018-08-04T04:35:38.784Z,10.93
2018-08-04T04:38:07.166Z,11.20
2018-08-04T04:40:35.488Z,12.40
2018-08-04T04:43:03.843Z,11.77
2018-08-04T04:45:32.101Z,11.40
2018-08-04T04:48:00.418Z,11.30
2018-08-04T04:50:28.793Z,10.83
2018-08-04T04:52:57.100Z,10.80
2018-08-04T04:55:25.498Z,12.00
2018-08-04T04:57:53.851Z,11.50
2018-08-04T05:00:22.236Z,12.40
2018-08-04T05:02:50.566Z,11.47
2018-08-04T05:05:18.899Z,12.03
2018-08-04T05:07:47.182Z,11.70
2018-08-04T05:10:15.549Z,11.93
2018-08-04T05:12:43.900Z,11.77
2018-08-04T05:15:12.281Z,11.83
2018-08-04T05:17:40.617Z,11.80
2018-08-04T05:20:08.973Z,12.30
2018-08-04T05:22:37.327Z,11.23
2018-08-04T05:25:06.534Z,11.53
2018-08-04T05:27:34.818Z,12.23
2018-08-04T05:30:03.232Z,11.17
2018-08-04T05:32:31.556Z,12.57
2018-08-04T05:34:59.898Z,12.20
2018-08-04T05:37:28.305Z,12.13
2018-08-04T05:39:56.588Z,11.90
2018-08-04T05:42:24.899Z,11.70
2018-08-04T05:44:53.147Z,11.60
2018-08-04T05:47:21.517Z,12.20
2018-08-04T05:49:49.850Z,12.20
2018-08-04T05:52:18.177Z,12.20
2018-08-04T05:54:46.465Z,12.73
2018-08-04T05:57:14.838Z,13.40
2018-08-04T05:59:43.133Z,12.20
2018-08-04T06:02:11.522Z,11.90
2018-08-04T06:04:39.889Z,11.60
2018-08-04T06:07:08.223Z,12.90
2018-08-04T06:09:36.540Z,12.50
2018-08-04T06:12:04.886Z,12.50
2018-08-04T06:14:33.176Z,12.33
2018-08-04T06:17:01.609Z,12.67
2018-08-04T06:19:29.916Z,13.07
2018-08-04T06:21:58.270Z,12.90
2018-08-04T06:24:26.556Z,12.83
2018-08-04T06:26:54.941Z,11.83
2018-08-04T06:29:23.241Z,12.23
2018-08-04T06:31:51.553Z,12.40
2018-08-04T06:34:19.901Z,11.80
2018-08-04T06:36:48.204Z,12.43
2018-08-04T06:39:16.523Z,13.03
2018-08-04T06:41:44.907Z,11.60
2018-08-04T06:44:13.262Z,12.77
2018-08-04T06:46:41.612Z,11.40
2018-08-04T06:49:09.982Z,12.63
2018-08-04T06:51:38.365Z,11.70
2018-08-04T06:54:06.752Z,11.77
2018-08-04T06:56:35.090Z,13.93
2018-08-04T06:59:03.648Z,14.03
2018-08-04T07:01:32.893Z,14.50
2018-08-04T07:04:01.164Z,14.63
2018-08-04T07:06:29.488Z,15.40
2018-08-04T07:08:57.803Z,15.33
2018-08-04T07:11:26.193Z,14.20
2018-08-04T07:13:54.559Z,14.73
2018-08-04T07:16:22.850Z,13.77
2018-08-04T07:18:51.216Z,14.73
2018-08-04T07:21:19.585Z,13.90
2018-08-04T07:23:47.942Z,13.90
2018-08-04T07:26:16.865Z,15.10
2018-08-04T07:28:45.182Z,14.00
2018-08-04T07:31:13.615Z,14.57
2018-08-04T07:33:41.964Z,14.30
2018-08-04T07:36:10.345Z,14.63
2018-08-04T07:38:38.661Z,15.10
2018-08-04T07:41:07.348Z,15.20
2018-08-04T07:43:35.570Z,14.87
2018-08-04T07:46:03.978Z,14.33
2018-08-04T07:48:33.770Z,15.53
2018-08-04T07:51:03.611Z,16.27
2018-08-04T07:53:31.993Z,14.40
2018-08-04T07:56:00.361Z,14.37
2018-08-04T07:58:28.666Z,14.73
2018-08-04T08:00:56.860Z,16.10
2018-08-04T08:03:25.249Z,15.50
2018-08-04T08:05:53.831Z,15.27
2018-08-04T08:08:22.266Z,16.03
2018-08-04T08:10:50.629Z,15.37
2018-08-04T08:13:18.923Z,15.77
2018-08-04T08:15:48.289Z,16.63
2018-08-04T08:18:17.613Z,15.47
2018-08-04T08:20:46.002Z,17.40
2018-08-04T08:23:15.297Z,14.80
2018-08-04T08:26:01.881Z,14.13
2018-08-04T08:28:30.303Z,15.30
2018-08-04T08:30:58.599Z,14.53
2018-08-04T08:33:26.987Z,13.80
2018-08-04T08:35:56.287Z,14.60
2018-08-04T08:38:24.923Z,14.77
2018-08-04T08:40:53.195Z,13.87
2018-08-04T08:43:21.412Z,14.17
2018-08-04T08:45:49.805Z,14.03
2018-08-04T08:48:18.078Z,13.03
2018-08-04T08:50:46.396Z,16.50
2018-08-04T08:53:14.712Z,14.90
2018-08-04T08:55:43.309Z,14.37
2018-08-04T08:58:11.637Z,14.30
2018-08-04T09:00:39.874Z,15.03
2018-08-04T09:03:08.579Z,21.23
2018-08-04T09:05:36.903Z,15.87
2018-08-04T09:08:05.695Z,14.13
2018-08-04T09:10:34.020Z,14.73
2018-08-04T09:13:02.220Z,15.07
2018-08-04T09:15:30.629Z,14.43
2018-08-04T09:17:59.021Z,14.87
2018-08-04T09:20:27.434Z,13.90
2018-08-04T09:22:55.870Z,13.90
2018-08-04T09:25:24.243Z,14.47
2018-08-04T09:27:52.525Z,14.33
2018-08-04T09:30:20.867Z,14.23
2018-08-04T09:32:49.188Z,14.20
2018-08-04T09:35:17.550Z,14.40
2018-08-04T09:37:45.908Z,14.67
2018-08-04T09:40:15.119Z,13.50
2018-08-04T09:42:45.031Z,14.53
2018-08-04T09:45:13.513Z,13.53
2018-08-04T09:47:41.893Z,13.30
2018-08-04T09:50:11.495Z,13.60
2018-08-04T09:52:40.243Z,13.87
2018-08-04T09:55:09.836Z,13.00
2018-08-04T09:57:38.812Z,12.93
2018-08-04T10:00:14.856Z,12.30
2018-08-04T10:02:43.323Z,11.73
2018-08-04T10:05:11.713Z,13.30
2018-08-04T10:07:40.025Z,11.73
2018-08-04T10:10:08.455Z,12.10
2018-08-04T10:12:36.740Z,14.03
2018-08-04T10:15:07.742Z,12.93
2018-08-04T10:17:36.057Z,12.73
2018-08-04T10:20:05.190Z,12.07
2018-08-04T10:22:33.439Z,13.47
2018-08-04T10:25:01.768Z,13.00
2018-08-04T10:27:30.141Z,11.10
2018-08-04T10:29:58.519Z,11.17
2018-08-04T10:32:26.965Z,11.07
2018-08-04T10:34:55.329Z,11.90
2018-08-04T10:37:23.938Z,10.73
2018-08-04T10:39:52.818Z,10.77
2018-08-04T10:42:21.057Z,11.23
2018-08-04T10:44:49.388Z,10.57
2018-08-04T10:47:17.737Z,11.03
2018-08-04T10:49:46.148Z,10.47
2018-08-04T10:52:14.512Z,9.80
2018-08-04T10:54:42.892Z,8.83
2018-08-04T10:57:11.245Z,9.70
2018-08-04T10:59:39.460Z,9.17
2018-08-04T11:02:08.337Z,9.57
2018-08-04T11:04:36.759Z,9.60
2018-08-04T11:07:05.308Z,9.07
2018-08-04T11:09:33.784Z,8.70
2018-08-04T11:12:02.121Z,8.87
2018-08-04T11:14:30.380Z,9.03
2018-08-04T11:16:58.719Z,8.20
2018-08-04T11:19:27.056Z,8.10
2018-08-04T11:21:55.417Z,8.23
2018-08-04T11:24:24.347Z,8.80
2018-08-04T11:26:53.342Z,7.90
2018-08-04T11:29:21.677Z,6.77
2018-08-04T11:31:50.029Z,6.70
2018-08-04T11:34:18.344Z,6.67
2018-08-04T11:36:46.722Z,7.07
2018-08-04T11:39:15.042Z,6.73
2018-08-04T11:41:43.398Z,7.07
2018-08-04T11:44:11.696Z,8.60
2018-08-04T11:46:40.045Z,7.60
2018-08-04T11:49:08.393Z,8.27
2018-08-04T11:51:36.805Z,8.47
2018-08-04T11:54:05.129Z,6.73
2018-08-04T11:56:33.438Z,7.67
2018-08-04T11:59:01.758Z,7.57
2018-08-04T12:01:30.123Z,7.70
2018-08-04T12:03:58.442Z,8.57
2018-08-04T12:06:26.776Z,8.77
2018-08-04T12:08:55.265Z,8.50
2018-08-04T12:11:23.571Z,7.40
2018-08-04T12:13:51.887Z,8.70
2018-08-04T12:16:20.371Z,8.30
2018-08-04T12:18:48.705Z,8.33
2018-08-04T12:21:16.935Z,7.33
2018-08-04T12:23:45.312Z,8.30
2018-08-04T12:26:13.706Z,9.40
2018-08-04T12:28:42.074Z,8.77
2018-08-04T12:31:10.396Z,8.10
2018-08-04T12:33:38.595Z,7.17
2018-08-04T12:36:07.072Z,8.47
2018-08-04T12:38:35.458Z,7.53
2018-08-04T12:41:03.800Z,6.57
2018-08-04T12:43:32.183Z,7.40
2018-08-04T12:46:00.556Z,7.83
2018-08-04T12:48:29.541Z,7.30
2018-08-04T12:50:59.887Z,8.20
2018-08-04T12:53:28.119Z,7.23
2018-08-04T12:55:56.969Z,7.97
2018-08-04T12:58:25.378Z,7.47
2018-08-04T13:00:53.805Z,6.90
2018-08-04T13:03:22.308Z,7.60
2018-08-04T13:05:50.980Z,7.27
2018-08-04T13:08:19.339Z,7.90
2018-08-04T13:10:48.833Z,8.30
2018-08-04T13:13:17.337Z,7.20
2018-08-04T13:15:45.649Z,7.30
2018-08-04T13:18:13.994Z,7.27
2018-08-04T13:20:42.379Z,6.53
2018-08-04T13:23:10.743Z,7.37
2018-08-04T13:25:39.096Z,7.70
2018-08-04T13:28:07.593Z,7.37
2018-08-04T13:30:36.266Z,7.00
2018-08-04T13:33:04.593Z,7.23
2018-08-04T13:35:32.899Z,6.83
2018-08-04T13:38:01.277Z,7.40
2018-08-04T13:40:29.581Z,6.83
2018-08-04T13:42:57.888Z,7.67
2018-08-04T13:45:26.241Z,7.47
2018-08-04T13:47:54.613Z,6.63
2018-08-04T13:50:22.842Z,7.40
2018-08-04T13:52:51.174Z,7.60
2018-08-04T13:55:19.472Z,7.77
2018-08-04T13:57:47.829Z,7.60
2018-08-04T14:00:16.156Z,6.60
2018-08-04T14:02:44.526Z,7.17
2018-08-04T14:05:12.837Z,6.80
2018-08-04T14:07:41.148Z,6.83
2018-08-04T14:10:09.671Z,5.90
2018-08-04T14:12:38.074Z,7.40
2018-08-04T14:15:06.444Z,6.73
2018-08-04T14:17:34.793Z,7.60
2018-08-04T14:20:03.373Z,6.70
2018-08-04T14:22:31.733Z,6.97
2018-08-04T14:25:00.063Z,7.13
2018-08-04T14:27:28.461Z,7.20
2018-08-04T14:29:56.773Z,8.10
2018-08-04T14:32:25.121Z,7.87
2018-08-04T14:34:53.525Z,7.10
2018-08-04T14:37:21.802Z,8.03
2018-08-04T14:39:50.172Z,7.50
2018-08-04T14:42:18.530Z,7.80
2018-08-04T14:44:46.869Z,8.13
2018-08-04T14:47:15.867Z,7.60
2018-08-04T14:49:44.139Z,7.50
2018-08-04T14:52:12.470Z,8.00
2018-08-04T14:54:40.856Z,8.20
2018-08-04T14:57:09.158Z,8.07
2018-08-04T14:59:37.616Z,8.70
2018-08-04T15:02:06.609Z,7.77
2018-08-04T15:04:35.006Z,9.47
2018-08-04T15:07:03.398Z,8.37
2018-08-04T15:09:31.626Z,9.07
2018-08-04T15:11:59.977Z,8.70
2018-08-04T15:14:28.293Z,9.07
2018-08-04T15:16:56.604Z,9.40
2018-08-04T15:19:24.807Z,9.07
2018-08-04T15:21:53.164Z,9.00
2018-08-04T15:24:21.564Z,9.63
2018-08-04T15:26:49.898Z,8.77
2018-08-04T15:29:19.197Z,9.17
2018-08-04T15:31:47.519Z,9.53
2018-08-04T15:34:15.956Z,9.37
2018-08-04T15:36:44.284Z,9.20
2018-08-04T15:39:12.563Z,8.67
2018-08-04T15:41:41.053Z,8.93
2018-08-04T15:44:09.380Z,9.70
2018-08-04T15:46:37.813Z,9.20
2018-08-04T15:49:06.217Z,9.67
2018-08-04T15:51:34.544Z,9.20
2018-08-04T15:54:03.110Z,10.30
2018-08-04T15:56:31.480Z,9.60
2018-08-04T15:58:59.812Z,8.90
2018-08-04T16:01:28.121Z,9.87
2018-08-04T16:03:56.592Z,11.40
2018-08-04T16:06:24.949Z,9.73
2018-08-04T16:08:53.365Z,10.57
2018-08-04T16:11:21.689Z,9.33
2018-08-04T16:13:51.001Z,9.67
2018-08-04T16:16:19.346Z,9.43
2018-08-04T16:18:47.689Z,9.23
2018-08-04T16:21:16.049Z,9.47
2018-08-04T16:23:44.204Z,9.83
2018-08-04T16:26:12.601Z,10.07
2018-08-04T16:28:41.001Z,9.60
2018-08-04T16:31:09.429Z,9.13
2018-08-04T16:33:37.753Z,12.07
2018-08-04T16:36:06.153Z,8.90
2018-08-04T16:38:34.541Z,9.97
2018-08-04T16:41:02.894Z,9.40
2018-08-04T16:43:31.260Z,8.60
2018-08-04T16:45:59.471Z,9.67
2018-08-04T16:48:27.768Z,9.40
2018-08-04T16:50:56.194Z,10.83
2018-08-04T16:53:24.499Z,8.30
2018-08-04T16:55:52.904Z,16.90
2018-08-04T16:58:21.297Z,14.10
2018-08-04T17:00:49.579Z,9.43
2018-08-04T17:03:17.812Z,9.13
2018-08-04T17:05:46.186Z,9.33
2018-08-04T17:08:14.666Z,9.97
2018-08-04T17:10:42.990Z,10.07
2018-08-04T17:13:11.356Z,9.10
2018-08-04T17:15:39.730Z,8.57
2018-08-04T17:18:08.271Z,9.87
2018-08-04T17:20:36.560Z,10.13
2018-08-04T17:23:05.102Z,9.37
2018-08-04T17:25:33.446Z,9.40
2018-08-04T17:28:01.814Z,9.20
2018-08-04T17:30:30.134Z,9.40
2018-08-04T17:32:58.621Z,10.40
2018-08-04T17:35:26.957Z,11.13
2018-08-04T17:37:55.152Z,9.27
2018-08-04T17:40:23.513Z,9.13
2018-08-04T17:42:52.014Z,9.27
2018-08-04T17:45:20.389Z,8.30
2018-08-04T17:47:48.733Z,10.67
2018-08-04T17:50:17.050Z,8.70
2018-08-04T17:52:45.389Z,8.90
2018-08-04T17:55:13.717Z,7.67
2018-08-04T17:57:42.156Z,8.70
2018-08-04T18:00:10.460Z,8.90
2018-08-04T18:02:39.084Z,8.40
2018-08-04T18:05:08.110Z,8.83
2018-08-04T18:07:36.884Z,9.40
2018-08-04T18:10:05.429Z,10.47
2018-08-04T18:12:34.194Z,8.93
2018-08-04T18:15:02.625Z,9.00
2018-08-04T18:17:30.947Z,9.67
2018-08-04T18:19:59.385Z,10.20
2018-08-04T18:22:27.729Z,8.60
2018-08-04T18:24:56.085Z,9.13
2018-08-04T18:27:24.432Z,9.47
2018-08-04T18:29:52.876Z,10.30
2018-08-04T18:32:21.269Z,9.00
2018-08-04T18:34:49.618Z,11.53
2018-08-04T18:37:17.907Z,9.70
2018-08-04T18:39:46.257Z,9.40
2018-08-04T18:42:14.561Z,11.67
2018-08-04T18:44:43.006Z,10.17
2018-08-04T18:47:11.289Z,11.57
2018-08-04T18:49:39.625Z,10.53
2018-08-04T18:52:07.872Z,10.90
2018-08-04T18:54:36.065Z,10.40
2018-08-04T18:57:04.451Z,10.00
2018-08-04T18:59:33.711Z,10.83
2018-08-04T19:02:02.122Z,11.60
2018-08-04T19:04:30.562Z,10.40
2018-08-04T19:06:58.929Z,11.00
2018-08-04T19:09:27.347Z,10.97
2018-08-04T19:11:55.710Z,11.00
2018-08-04T19:14:24.025Z,11.27
2018-08-04T19:16:52.348Z,11.73
2018-08-04T19:19:20.702Z,11.80
2018-08-04T19:21:49.053Z,11.90
2018-08-04T19:24:17.510Z,11.10
2018-08-04T19:26:45.830Z,11.80
2018-08-04T19:29:14.152Z,11.40
2018-08-04T19:31:42.533Z,11.00
2018-08-04T19:34:10.925Z,11.60
2018-08-04T19:36:39.338Z,10.50
2018-08-04T19:39:09.422Z,10.70
2018-08-04T19:41:37.876Z,11.27
2018-08-04T19:44:06.462Z,10.63
2018-08-04T19:46:34.765Z,11.60
2018-08-04T19:49:03.182Z,11.17
2018-08-04T19:51:31.464Z,10.70
2018-08-04T19:53:59.812Z,10.77
2018-08-04T19:56:28.184Z,10.30
2018-08-04T19:58:56.632Z,10.07
2018-08-04T20:01:24.954Z,10.40
2018-08-04T20:03:53.382Z,12.83
2018-08-04T20:06:21.693Z,10.70
2018-08-04T20:08:50.065Z,11.27
2018-08-04T20:11:18.481Z,11.73
2018-08-04T20:13:46.958Z,12.07
2018-08-04T20:16:15.359Z,11.67
2018-08-04T20:18:43.731Z,12.10
2018-08-04T20:21:12.081Z,10.80
2018-08-04T20:23:40.472Z,12.07
2018-08-04T20:26:08.822Z,10.80
2018-08-04T20:28:37.194Z,11.37
2018-08-04T20:31:05.538Z,11.50
2018-08-04T20:33:33.845Z,12.00
2018-08-04T20:36:02.325Z,10.30
2018-08-04T20:38:30.738Z,11.33
2018-08-04T20:40:59.167Z,11.03
2018-08-04T20:43:27.497Z,11.93
2018-08-04T20:45:55.839Z,11.80
2018-08-04T20:48:24.165Z,10.97
2018-08-04T20:50:52.603Z,12.20
2018-08-04T20:53:20.966Z,11.97
2018-08-04T20:55:49.379Z,11.60
2018-08-04T20:58:17.801Z,12.00
2018-08-04T21:00:57.144Z,11.50
2018-08-04T21:03:25.507Z,11.47
2018-08-04T21:05:53.722Z,11.83
2018-08-04T21:08:22.133Z,10.90
2018-08-04T21:10:50.350Z,11.10
2018-08-04T21:13:18.718Z,11.43
2018-08-04T21:15:47.242Z,11.87
2018-08-04T21:18:15.562Z,12.10
2018-08-04T21:20:43.974Z,11.67
2018-08-04T21:23:12.411Z,12.60
2018-08-04T21:25:40.904Z,11.30
2018-08-04T21:28:09.228Z,11.93
2018-08-04T21:30:37.636Z,11.27
2018-08-04T21:33:06.038Z,12.83
2018-08-04T21:35:34.412Z,11.03
2018-08-04T21:38:02.793Z,12.13
2018-08-04T21:40:31.173Z,12.60
2018-08-04T21:42:59.520Z,12.67
2018-08-04T21:45:27.784Z,12.43
2018-08-04T21:47:55.976Z,11.77
2018-08-04T21:50:24.371Z,12.60
2018-08-04T21:52:52.668Z,11.90
2018-08-04T21:55:21.069Z,11.77
2018-08-04T21:57:49.522Z,12.10
2018-08-04T22:00:17.901Z,12.23
2018-08-04T22:02:55.782Z,12.30
2018-08-04T22:05:24.577Z,12.63
2018-08-04T22:08:11.081Z,13.07
2018-08-04T22:10:39.476Z,12.23
2018-08-04T22:13:07.902Z,11.67
2018-08-04T22:15:36.243Z,13.20
2018-08-04T22:18:04.689Z,13.30
2018-08-04T22:20:33.216Z,11.27
2018-08-04T22:23:01.734Z,11.43
2018-08-04T22:25:30.285Z,12.23
2018-08-04T22:27:59.725Z,11.53
2018-08-04T22:30:28.248Z,13.17
2018-08-04T22:32:56.625Z,12.47
2018-08-04T22:35:25.337Z,13.37
2018-08-04T22:37:55.047Z,11.63
2018-08-04T22:40:24.051Z,14.20
2018-08-04T22:42:52.303Z,12.43
2018-08-04T22:45:33.654Z,14.00
2018-08-04T22:48:02.009Z,12.93
2018-08-04T22:50:30.339Z,12.77
2018-08-04T22:52:58.702Z,12.37
2018-08-04T22:55:27.054Z,13.63
2018-08-04T22:57:55.382Z,12.37
2018-08-04T23:00:23.752Z,12.90
2018-08-04T23:02:52.113Z,12.90
2018-08-04T23:05:20.474Z,12.10
2018-08-04T23:07:48.786Z,12.37
2018-08-04T23:10:17.184Z,12.47
2018-08-04T23:12:45.367Z,12.97
2018-08-04T23:15:13.677Z,13.87
2018-08-04T23:17:42.013Z,12.47
2018-08-04T23:20:10.341Z,12.47
2018-08-04T23:22:38.668Z,12.13
2018-08-04T23:25:07.033Z,13.60
2018-08-04T23:27:35.397Z,13.27
2018-08-04T23:30:03.848Z,14.47
2018-08-04T23:32:32.192Z,12.93
2018-08-04T23:35:01.158Z,13.17
2018-08-04T23:37:29.385Z,11.67
2018-08-04T23:39:57.709Z,13.03
2018-08-04T23:42:26.530Z,13.43
2018-08-04T23:44:54.860Z,13.33
2018-08-04T23:47:23.056Z,12.60
2018-08-04T23:49:51.351Z,12.37
2018-08-04T23:52:19.689Z,13.80
2018-08-04T23:54:47.982Z,13.17
2018-08-04T23:57:16.343Z,13.33
2018-08-04T23:59:44.736Z,12.90
